Terminal Aerodrome Forecast
Issued by NWS

Home | Current Version | Previous Version | Text Only | Print | Product List | Glossary On
Versions: 1 2 3 4 5 6 7 8 9 10 11 12 13 14 15 16 17 18 19 20 21 22 23 24
000
FTAK31 PAFA 191134
TAFATA
TAF
PATA 191134Z 1912/2012 07015G25KT P6SM SCT035 BKN050 OVC100
     FM191800 10015KT P6SM VCSH SCT025 BKN035 OVC050
     FM192100 10015KT P6SM -SHRA SCT025 BKN035 OVC050
     FM200300 10008KT P6SM VCSH SCT035 BKN050 OVC100
     FM200600 10006KT P6SM SCT050 BKN100=

USA.gov is the U.S. government's official web portal to all federal, state and local government web resources and services.